createdAt,value
2019-05-11T07:59:53.254Z,35.90
2019-05-11T08:12:00.272Z,43.90
2019-05-11T08:20:48.978Z,35.90
2019-05-11T08:40:18.258Z,33.30
2019-05-11T08:46:12.468Z,28.20
2019-05-11T08:53:14.076Z,26.20
2019-05-11T08:58:30.069Z,25.70
2019-05-11T09:03:31.110Z,33.70
2019-05-11T09:08:33.132Z,29.20
2019-05-11T09:13:51.053Z,34.60
2019-05-11T09:18:51.890Z,30.80
2019-05-11T09:24:35.573Z,36.50
2019-05-11T09:29:43.755Z,37.40
2019-05-11T09:42:12.807Z,20.20
2019-05-11T09:54:28.893Z,20.40
2019-05-11T09:59:19.185Z,22.70
2019-05-11T10:05:43.233Z,24.90
2019-05-11T10:18:49.106Z,19.60
2019-05-11T10:23:51.144Z,20.20
2019-05-11T10:29:05.167Z,20.80
2019-05-11T10:33:58.005Z,16.40
2019-05-11T10:39:18.597Z,16.60
2019-05-11T10:44:27.820Z,12.30
2019-05-11T10:49:37.961Z,11.20
2019-05-11T10:55:34.442Z,12.10
2019-05-11T11:00:40.587Z,9.50
2019-05-11T11:05:32.005Z,9.30
2019-05-11T11:10:23.507Z,8.10
2019-05-11T11:15:23.661Z,10.00
2019-05-11T11:20:13.823Z,8.40
2019-05-11T11:25:44.064Z,11.00
2019-05-11T11:32:38.273Z,11.00
2019-05-11T11:37:40.898Z,9.50
2019-05-11T11:43:14.806Z,9.10
2019-05-11T11:48:14.498Z,8.80
2019-05-11T11:55:38.977Z,9.10
2019-05-11T12:00:48.254Z,8.30
2019-05-11T12:06:50.074Z,9.30
2019-05-11T12:12:21.593Z,7.80
2019-05-11T12:18:00.306Z,8.20
2019-05-11T12:24:32.344Z,8.20
2019-05-11T12:31:32.642Z,8.40
2019-05-11T12:38:07.744Z,8.10
2019-05-11T12:48:28.243Z,7.30
2019-05-11T12:53:18.748Z,7.00
